Portada
METAR-TAF:

METAR-TAF

Aeroports :

Neuquén, Argentina

latitud: 38-57S, longitud: 068-08W, altitud: 270 m

Observació

L'informe es va fer fa 24 minuts, a les 08:00 UTC
Vent 2 kt del Est
Temperatura 26°C
Humitat 58%
Pressió 1008 hPa
Visibilitat 10 km o més
sense núvols per sota de 1500 mi sense presència de cumulonimbus.

METAR: SAZN 230800Z 09002KT CAVOK 26/17 Q1008

Hora: 05:24 (08:24 UTC)

Pronòstic

L'informe es va fer fa 3 hores i 24 minuts, a les 05:00 UTC
Pronòstic vàlid del 23 a les 06 UTC al 24 a les 06 UTC
Vent 10 kt del Nord-Est
Visibilitat 10 km o més
sense núvols per sota de 1500 mi sense presència de cumulonimbus.
Evolucionant progressivament
l' 23 a les 10 UTC al 23 a les 12 UTC
Vent 20 kt del Oest/Sud-Oest
Probabilitat 40% :
Temporalment
l' 23 a les 18 UTC al 23 a les 22 UTC
Vent 20 kt del Oest/Sud-Oest amb ràfegues de 30 kt

TAF: SAZN 230500Z 2306/2406 05010KT CAVOK TX36/2219Z TN20/2309Z BECMG 2310/2312 25020KT PROB40 TEMPO 2318/2322 25020G30KT

Observacions i pronòstics meteorològics de més de 4000 aeroports (METAR i TAF).

Les estacions disponibles són els punts grocs i vermells al mapa.

Posi el ratolí al punt desitjat per veure el nom de l'estació.

Feu clic per veure les observacions i els pronòstics meteorològics.

Per canviar el mapa: feu clic els botons verds amb una creu de color negre per apropar; al botó verd amb un guió per allunyar la imatge; o en les fletxes verdes per a mapes adjacents.


METAR-TAF: